createdAt,value
2018-02-01T00:02:03.336Z,65.20
2018-02-01T00:04:31.805Z,65.30
2018-02-01T00:07:00.301Z,71.83
2018-02-01T00:09:28.773Z,69.97
2018-02-01T00:11:57.272Z,70.40
2018-02-01T00:14:25.740Z,72.90
2018-02-01T00:16:54.244Z,68.70
2018-02-01T00:19:22.733Z,72.70
2018-02-01T00:21:51.224Z,71.60
2018-02-01T00:24:19.713Z,78.47
2018-02-01T00:26:48.218Z,75.17
2018-02-01T00:29:16.677Z,69.80
2018-02-01T00:31:45.214Z,74.23
2018-02-01T00:34:13.651Z,67.07
2018-02-01T00:36:42.161Z,79.90
2018-02-01T00:39:10.641Z,78.33
2018-02-01T00:41:39.137Z,68.83
2018-02-01T00:44:07.633Z,71.50
2018-02-01T00:46:36.094Z,67.10
2018-02-01T00:49:04.609Z,77.57
2018-02-01T00:51:33.058Z,70.07
2018-02-01T00:54:01.553Z,71.70
2018-02-01T00:56:30.014Z,71.23
2018-02-01T00:58:58.469Z,69.13
2018-02-01T01:01:26.957Z,69.57
2018-02-01T01:03:55.410Z,74.40
2018-02-01T01:06:23.913Z,74.07
2018-02-01T01:08:52.413Z,74.63
2018-02-01T01:11:20.939Z,73.17
2018-02-01T01:13:49.430Z,73.57
2018-02-01T01:16:17.893Z,75.70
2018-02-01T01:18:46.377Z,75.87
2018-02-01T01:21:14.833Z,65.57
2018-02-01T01:23:43.345Z,67.20
2018-02-01T01:26:11.813Z,72.97
2018-02-01T01:28:40.309Z,73.17
2018-02-01T01:31:08.799Z,60.63
2018-02-01T01:33:37.282Z,72.97
2018-02-01T01:36:05.772Z,73.40
2018-02-01T01:38:34.256Z,61.97
2018-02-01T01:41:02.757Z,61.73
2018-02-01T01:43:31.206Z,59.37
2018-02-01T01:46:11.478Z,64.17
2018-02-01T01:48:39.942Z,57.60
2018-02-01T01:51:08.446Z,64.30
2018-02-01T01:53:36.910Z,63.50
2018-02-01T01:56:05.368Z,62.43
2018-02-01T01:58:33.873Z,59.10
2018-02-01T02:01:02.326Z,57.90
2018-02-01T02:03:30.824Z,54.47
2018-02-01T02:05:59.330Z,54.63
2018-02-01T02:08:27.830Z,54.60
2018-02-01T02:10:56.277Z,63.70
2018-02-01T02:13:24.766Z,65.67
2018-02-01T02:15:53.266Z,66.37
2018-02-01T02:18:21.762Z,72.17
2018-02-01T02:20:50.237Z,64.53
2018-02-01T02:23:18.742Z,62.33
2018-02-01T02:25:47.212Z,57.40
2018-02-01T02:28:15.688Z,56.60
2018-02-01T02:30:44.195Z,59.40
2018-02-01T02:33:12.707Z,54.47
2018-02-01T02:35:41.233Z,49.67
2018-02-01T02:38:09.741Z,48.97
2018-02-01T02:40:38.213Z,49.87
2018-02-01T02:43:06.709Z,43.50
2018-02-01T02:45:35.238Z,47.63
2018-02-01T02:48:03.745Z,44.57
2018-02-01T02:50:32.222Z,41.93
2018-02-01T02:53:00.716Z,46.93
2018-02-01T02:55:29.199Z,41.77
2018-02-01T02:57:57.693Z,37.27
2018-02-01T03:00:26.195Z,41.03
2018-02-01T03:02:54.678Z,39.63
2018-02-01T03:05:23.158Z,35.93
2018-02-01T03:07:51.673Z,41.27
2018-02-01T03:10:20.147Z,43.03
2018-02-01T03:12:48.602Z,43.30
2018-02-01T03:15:17.119Z,36.93
2018-02-01T03:17:45.637Z,36.87
2018-02-01T03:20:14.169Z,41.40
2018-02-01T03:22:42.658Z,42.00
2018-02-01T03:25:11.117Z,43.00
2018-02-01T03:27:39.648Z,42.37
2018-02-01T03:30:08.153Z,38.97
2018-02-01T03:32:36.657Z,45.43
2018-02-01T03:35:05.134Z,51.00
2018-02-01T03:37:33.618Z,56.40
2018-02-01T03:40:02.116Z,47.40
2018-02-01T03:42:30.610Z,48.43
2018-02-01T03:44:59.077Z,47.10
2018-02-01T03:47:27.608Z,54.80
2018-02-01T03:49:56.053Z,59.53
2018-02-01T03:52:24.519Z,51.50
2018-02-01T03:54:53.021Z,49.83
2018-02-01T03:57:21.469Z,47.10
2018-02-01T03:59:49.941Z,49.67
2018-02-01T04:02:18.430Z,51.57
2018-02-01T04:04:46.966Z,63.87
2018-02-01T04:07:15.413Z,59.67
2018-02-01T04:09:43.913Z,55.07
2018-02-01T04:12:12.386Z,55.90
2018-02-01T04:14:40.949Z,61.40
2018-02-01T04:17:09.462Z,59.73
2018-02-01T04:19:37.918Z,56.17
2018-02-01T04:22:06.412Z,60.93
2018-02-01T04:24:34.905Z,63.67
2018-02-01T04:27:03.373Z,60.97
2018-02-01T04:29:31.925Z,62.77
2018-02-01T04:32:00.446Z,59.77
2018-02-01T04:34:28.894Z,57.30
2018-02-01T04:36:57.389Z,64.63
2018-02-01T04:39:25.853Z,63.63
2018-02-01T04:41:54.373Z,61.27
2018-02-01T04:44:22.834Z,75.47
2018-02-01T04:46:51.297Z,75.30
2018-02-01T04:49:19.792Z,56.77
2018-02-01T04:51:48.271Z,71.07
2018-02-01T04:54:16.758Z,69.97
2018-02-01T04:56:45.260Z,105.87
2018-02-01T04:59:13.718Z,122.10
2018-02-01T05:01:42.234Z,102.07
2018-02-01T05:04:10.706Z,102.60
2018-02-01T05:06:39.202Z,92.27
2018-02-01T05:09:07.693Z,91.20
2018-02-01T05:11:36.201Z,76.67
2018-02-01T05:14:04.650Z,73.30
2018-02-01T05:16:33.219Z,79.07
2018-02-01T05:19:01.692Z,85.40
2018-02-01T05:21:30.165Z,93.83
2018-02-01T05:23:58.654Z,95.83
2018-02-01T05:26:27.149Z,90.27
2018-02-01T05:28:55.646Z,82.93
2018-02-01T05:31:24.105Z,86.87
2018-02-01T05:33:52.605Z,108.37
2018-02-01T05:36:21.071Z,114.63
2018-02-01T05:38:49.569Z,118.67
2018-02-01T05:41:18.033Z,99.33
2018-02-01T05:43:46.533Z,105.57
2018-02-01T05:46:15.048Z,82.10
2018-02-01T05:48:43.510Z,87.20
2018-02-01T05:51:12.041Z,83.40
2018-02-01T05:53:40.544Z,79.53
2018-02-01T05:56:09.059Z,86.80
2018-02-01T05:58:37.539Z,78.93
2018-02-01T06:01:06.002Z,77.53
2018-02-01T06:03:34.536Z,74.83
2018-02-01T06:06:03.046Z,68.40
2018-02-01T06:08:31.537Z,66.80
2018-02-01T06:10:59.997Z,79.00
2018-02-01T06:13:28.515Z,96.17
2018-02-01T06:15:56.969Z,94.30
2018-02-01T06:18:25.442Z,94.10
2018-02-01T06:20:53.953Z,104.10
2018-02-01T06:23:22.410Z,88.40
2018-02-01T06:25:50.866Z,94.87
2018-02-01T06:28:19.361Z,101.83
2018-02-01T06:30:47.871Z,87.50
2018-02-01T06:33:16.333Z,84.50
2018-02-01T06:35:44.831Z,71.67
2018-02-01T06:38:13.289Z,75.27
2018-02-01T06:40:41.765Z,71.17
2018-02-01T06:43:10.258Z,65.03
2018-02-01T06:45:38.744Z,56.87
2018-02-01T06:48:07.254Z,61.00
2018-02-01T06:50:36.498Z,53.73
2018-02-01T06:53:05.037Z,46.77
2018-02-01T06:55:33.529Z,43.73
2018-02-01T06:58:01.997Z,41.90
2018-02-01T07:03:30.865Z,29.67
2018-02-01T07:05:59.391Z,41.20
2018-02-01T07:08:27.933Z,29.20
2018-02-01T07:10:56.527Z,32.30
2018-02-01T07:13:25.106Z,36.40
2018-02-01T07:15:53.643Z,37.00
2018-02-01T07:18:22.182Z,45.60
2018-02-01T07:20:50.713Z,30.40
2018-02-01T07:23:19.248Z,36.77
2018-02-01T07:25:47.832Z,35.53
2018-02-01T07:28:18.175Z,36.30
2018-02-01T07:30:46.698Z,33.87
2018-02-01T07:33:15.171Z,43.63
2018-02-01T07:35:43.704Z,45.50
2018-02-01T07:38:12.178Z,66.60
2018-02-01T07:40:40.674Z,58.13
2018-02-01T07:43:09.243Z,49.67
2018-02-01T07:45:38.344Z,50.73
2018-02-01T07:48:06.842Z,52.97
2018-02-01T07:50:35.394Z,68.23
2018-02-01T07:53:03.908Z,43.87
2018-02-01T07:55:32.450Z,50.77
2018-02-01T07:58:00.965Z,55.17
2018-02-01T08:00:29.454Z,46.47
2018-02-01T08:02:57.949Z,50.93
2018-02-01T08:05:26.432Z,60.47
2018-02-01T08:07:54.938Z,58.10
2018-02-01T08:10:23.402Z,57.43
2018-02-01T08:12:51.932Z,56.97
2018-02-01T08:15:20.401Z,55.67
2018-02-01T08:17:48.929Z,49.60
2018-02-01T08:20:17.429Z,38.37
2018-02-01T08:22:45.962Z,33.03
2018-02-01T08:25:14.488Z,40.60
2018-02-01T08:27:42.974Z,39.03
2018-02-01T08:30:11.506Z,55.73
2018-02-01T08:32:39.973Z,43.27
2018-02-01T08:35:08.434Z,42.87
2018-02-01T08:37:36.880Z,52.97
2018-02-01T08:40:05.456Z,51.73
2018-02-01T08:42:33.977Z,47.60
2018-02-01T08:45:02.477Z,55.90
2018-02-01T08:47:30.970Z,42.43
2018-02-01T08:49:59.569Z,35.90
2018-02-01T08:52:28.044Z,34.10
2018-02-01T08:54:56.557Z,55.60
2018-02-01T08:57:25.061Z,39.67
2018-02-01T08:59:53.523Z,54.57
2018-02-01T09:02:22.041Z,45.40
2018-02-01T09:04:50.505Z,49.33
2018-02-01T09:07:19.005Z,38.90
2018-02-01T09:09:47.483Z,48.43
2018-02-01T09:12:15.998Z,55.27
2018-02-01T09:14:44.519Z,52.90
2018-02-01T09:17:13.009Z,40.63
2018-02-01T09:19:41.536Z,45.17
2018-02-01T09:22:10.084Z,55.73
2018-02-01T09:24:38.582Z,45.77
2018-02-01T09:27:07.048Z,42.87
2018-02-01T09:29:35.646Z,53.27
2018-02-01T09:32:04.117Z,60.73
2018-02-01T09:34:32.590Z,44.27
2018-02-01T09:37:01.146Z,44.00
2018-02-01T09:39:29.628Z,41.20
2018-02-01T09:41:58.138Z,48.67
2018-02-01T09:44:26.661Z,44.93
2018-02-01T09:46:55.178Z,43.50
2018-02-01T09:49:23.625Z,35.03
2018-02-01T09:51:52.144Z,34.87
2018-02-01T09:54:20.637Z,29.93
2018-02-01T09:56:49.120Z,26.60
2018-02-01T09:59:17.624Z,43.97
2018-02-01T10:01:46.133Z,26.17
2018-02-01T10:04:14.629Z,28.27
2018-02-01T10:06:43.138Z,26.50
2018-02-01T10:09:11.647Z,27.40
2018-02-01T10:11:40.130Z,30.23
2018-02-01T10:14:08.621Z,29.13
2018-02-01T10:16:37.122Z,20.80
2018-02-01T10:19:05.606Z,27.07
2018-02-01T10:21:34.117Z,21.63
2018-02-01T10:24:02.561Z,23.60
2018-02-01T10:26:31.031Z,57.90
2018-02-01T10:28:59.572Z,30.13
2018-02-01T10:31:28.059Z,37.00
2018-02-01T10:33:56.561Z,29.00
2018-02-01T10:36:25.066Z,23.33
2018-02-01T10:38:53.594Z,35.67
2018-02-01T10:41:22.092Z,32.40
2018-02-01T10:43:50.558Z,28.30
2018-02-01T10:46:19.055Z,38.63
2018-02-01T10:48:47.569Z,22.53
2018-02-01T10:51:16.086Z,21.03
2018-02-01T10:53:44.601Z,24.30
2018-02-01T10:56:17.973Z,24.80
2018-02-01T10:58:46.440Z,31.00
2018-02-01T11:01:14.937Z,31.93
2018-02-01T11:03:43.437Z,25.07
2018-02-01T11:06:11.956Z,20.53
2018-02-01T11:08:40.429Z,21.23
2018-02-01T11:11:08.885Z,24.47
2018-02-01T11:13:37.406Z,27.90
2018-02-01T11:16:06.074Z,31.23
2018-02-01T11:18:34.543Z,28.23
2018-02-01T11:21:03.012Z,21.97
2018-02-01T11:23:31.554Z,18.83
2018-02-01T11:26:00.062Z,20.33
2018-02-01T11:28:28.578Z,18.90
2018-02-01T11:30:57.082Z,24.70
2018-02-01T11:33:25.595Z,21.73
2018-02-01T11:35:54.109Z,23.10
2018-02-01T11:38:22.625Z,22.63
2018-02-01T11:40:51.161Z,24.13
2018-02-01T11:43:19.625Z,19.67
2018-02-01T11:45:48.103Z,22.57
2018-02-01T11:48:16.679Z,32.07
2018-02-01T11:50:45.149Z,21.03
2018-02-01T11:53:13.657Z,43.57
2018-02-01T11:55:42.126Z,22.70
2018-02-01T11:58:10.629Z,21.43
2018-02-01T12:00:39.110Z,19.07
2018-02-01T12:03:07.669Z,18.70
2018-02-01T12:05:36.184Z,19.37
2018-02-01T12:08:04.654Z,23.03
2018-02-01T12:10:33.709Z,24.40
2018-02-01T12:13:02.170Z,30.43
2018-02-01T12:15:30.662Z,19.20
2018-02-01T12:17:59.128Z,38.73
2018-02-01T12:20:27.624Z,22.60
2018-02-01T12:22:56.118Z,19.87
2018-02-01T12:25:25.378Z,31.67
2018-02-01T12:27:53.882Z,23.50
2018-02-01T12:30:22.405Z,25.93
2018-02-01T12:32:51.128Z,19.53
2018-02-01T12:35:20.486Z,24.83
2018-02-01T12:37:49.790Z,26.40
2018-02-01T12:40:18.241Z,20.30
2018-02-01T12:42:46.731Z,22.57
2018-02-01T12:45:15.240Z,27.13
2018-02-01T12:47:43.733Z,20.37
2018-02-01T12:50:12.213Z,21.87
2018-02-01T12:52:40.682Z,23.47
2018-02-01T12:55:09.129Z,24.20
2018-02-01T12:57:37.618Z,31.23
2018-02-01T13:00:06.051Z,20.07
2018-02-01T13:02:34.562Z,21.17
2018-02-01T13:05:03.046Z,20.00
2018-02-01T13:07:31.494Z,21.40
2018-02-01T13:09:59.986Z,28.47
2018-02-01T13:12:28.490Z,23.47
2018-02-01T13:14:56.977Z,20.80
2018-02-01T13:17:25.475Z,24.63
2018-02-01T13:19:53.930Z,43.87
2018-02-01T13:22:22.419Z,25.40
2018-02-01T13:24:50.925Z,24.77
2018-02-01T13:27:19.390Z,26.60
2018-02-01T13:29:47.916Z,34.00
2018-02-01T13:32:16.390Z,34.93
2018-02-01T13:34:44.838Z,28.27
2018-02-01T13:37:13.326Z,28.20
2018-02-01T13:39:41.832Z,27.50
2018-02-01T13:42:10.281Z,28.60
2018-02-01T13:44:38.765Z,29.80
2018-02-01T13:47:07.224Z,47.47
2018-02-01T13:49:35.705Z,25.43
2018-02-01T13:52:04.163Z,24.20
2018-02-01T13:54:32.650Z,38.03
2018-02-01T13:57:01.158Z,29.90
2018-02-01T13:59:29.606Z,23.87
2018-02-01T14:01:58.121Z,24.03
2018-02-01T14:04:26.578Z,24.83
2018-02-01T14:06:55.025Z,22.87
2018-02-01T14:09:23.513Z,31.07
2018-02-01T14:11:51.963Z,30.33
2018-02-01T14:14:20.463Z,24.90
2018-02-01T14:16:49.006Z,25.70
2018-02-01T14:19:17.462Z,29.07
2018-02-01T14:21:45.989Z,24.27
2018-02-01T14:24:14.442Z,22.37
2018-02-01T14:26:43.801Z,21.23
2018-02-01T14:29:12.260Z,20.87
2018-02-01T14:31:40.745Z,22.00
2018-02-01T14:34:09.226Z,23.37
2018-02-01T14:36:37.714Z,41.50
2018-02-01T14:39:06.230Z,24.77
2018-02-01T14:41:34.691Z,28.23
2018-02-01T14:44:03.181Z,20.60
2018-02-01T14:46:31.638Z,21.57
2018-02-01T14:49:00.129Z,22.27
2018-02-01T14:51:28.591Z,23.97
2018-02-01T14:53:58.091Z,35.93
2018-02-01T14:56:26.598Z,32.07
2018-02-01T14:58:55.085Z,39.10
2018-02-01T15:01:23.541Z,32.80
2018-02-01T15:03:52.125Z,25.63
2018-02-01T15:06:20.570Z,29.57
2018-02-01T15:08:49.067Z,39.83
2018-02-01T15:11:17.573Z,39.70
2018-02-01T15:13:46.021Z,42.43
2018-02-01T15:16:14.502Z,34.07
2018-02-01T15:18:42.998Z,36.33
2018-02-01T15:21:11.481Z,41.57
2018-02-01T15:23:39.933Z,37.20
2018-02-01T15:26:08.417Z,41.30
2018-02-01T15:28:36.901Z,38.60
2018-02-01T15:31:05.361Z,44.97
2018-02-01T15:33:33.860Z,41.80
2018-02-01T15:36:02.341Z,45.27
2018-02-01T15:38:30.829Z,43.50
2018-02-01T15:40:59.318Z,43.03
2018-02-01T15:43:27.841Z,38.10
2018-02-01T15:45:56.301Z,37.37
2018-02-01T15:48:24.785Z,42.00
2018-02-01T15:50:53.236Z,38.73
2018-02-01T15:53:21.721Z,44.63
2018-02-01T15:55:50.213Z,72.00
2018-02-01T15:58:18.693Z,53.27
2018-02-01T16:00:47.147Z,45.20
2018-02-01T16:03:15.633Z,38.07
2018-02-01T16:05:44.146Z,42.30
2018-02-01T16:08:12.589Z,45.23
2018-02-01T16:10:41.038Z,44.47
2018-02-01T16:13:09.527Z,47.30
2018-02-01T16:15:38.023Z,43.83
2018-02-01T16:18:06.621Z,45.00
2018-02-01T16:20:35.082Z,42.47
2018-02-01T16:23:03.573Z,40.73
2018-02-01T16:25:32.022Z,37.83
2018-02-01T16:28:00.520Z,46.83
2018-02-01T16:30:28.971Z,52.27
2018-02-01T16:32:57.453Z,91.27
2018-02-01T16:35:25.942Z,46.93
2018-02-01T16:37:54.386Z,42.30
2018-02-01T16:40:22.868Z,37.10
2018-02-01T16:42:51.407Z,48.83
2018-02-01T16:45:19.850Z,37.27
2018-02-01T16:47:48.325Z,32.83
2018-02-01T16:50:16.774Z,46.33
2018-02-01T16:52:45.261Z,65.53
2018-02-01T16:55:13.710Z,40.20
2018-02-01T16:57:42.149Z,32.97
2018-02-01T17:00:10.638Z,49.77
2018-02-01T17:02:39.077Z,48.83
2018-02-01T17:05:07.557Z,53.13
2018-02-01T17:07:36.002Z,48.73
2018-02-01T17:10:04.481Z,43.97
2018-02-01T17:12:32.925Z,52.97
2018-02-01T17:15:01.397Z,54.80
2018-02-01T17:17:29.873Z,56.10
2018-02-01T17:19:58.326Z,52.50
2018-02-01T17:22:26.801Z,54.37
2018-02-01T17:24:55.251Z,60.90
2018-02-01T17:27:23.711Z,81.87
2018-02-01T17:29:52.189Z,56.17
2018-02-01T17:32:20.661Z,59.57
2018-02-01T17:34:49.110Z,51.37
2018-02-01T17:37:17.589Z,53.37
2018-02-01T17:39:46.080Z,45.30
2018-02-01T17:42:14.601Z,52.13
2018-02-01T17:44:43.049Z,50.80
2018-02-01T17:47:11.533Z,48.47
2018-02-01T17:49:39.986Z,45.70
2018-02-01T17:52:08.470Z,45.40
2018-02-01T17:54:36.914Z,44.43
2018-02-01T17:57:05.390Z,42.43
2018-02-01T17:59:33.865Z,50.67
2018-02-01T18:02:02.310Z,54.20
2018-02-01T18:04:30.830Z,49.37
2018-02-01T18:06:59.314Z,45.10
2018-02-01T18:09:27.818Z,52.30
2018-02-01T18:11:56.294Z,53.37
2018-02-01T18:14:24.784Z,52.40
2018-02-01T18:16:53.226Z,49.40
2018-02-01T18:19:21.705Z,55.37
2018-02-01T18:21:50.186Z,48.90
2018-02-01T18:24:18.629Z,53.70
2018-02-01T18:26:47.110Z,57.17
2018-02-01T18:29:15.554Z,67.67
2018-02-01T18:31:44.034Z,67.60
2018-02-01T18:34:12.472Z,62.80
2018-02-01T18:36:41.945Z,56.77
2018-02-01T18:39:10.433Z,74.50
2018-02-01T18:41:38.925Z,72.30
2018-02-01T18:44:07.401Z,71.33
2018-02-01T18:46:35.908Z,65.67
2018-02-01T18:49:04.360Z,64.87
2018-02-01T18:51:32.853Z,69.23
2018-02-01T18:54:01.377Z,64.50
2018-02-01T18:56:29.853Z,57.43
2018-02-01T18:58:58.293Z,64.23
2018-02-01T19:01:26.774Z,71.63
2018-02-01T19:03:55.237Z,71.63
2018-02-01T19:06:23.713Z,63.53
2018-02-01T19:08:52.198Z,61.07
2018-02-01T19:11:20.676Z,65.67
2018-02-01T19:13:49.118Z,61.53
2018-02-01T19:16:17.611Z,71.03
2018-02-01T19:18:46.053Z,59.57
2018-02-01T19:21:14.536Z,59.33
2018-02-01T19:23:43.017Z,72.53
2018-02-01T19:26:11.497Z,70.57
2018-02-01T19:28:39.951Z,56.20
2018-02-01T19:31:08.465Z,55.13
2018-02-01T19:33:36.921Z,52.63
2018-02-01T19:36:05.405Z,55.73
2018-02-01T19:38:33.869Z,57.30
2018-02-01T19:41:02.385Z,50.33
2018-02-01T19:43:30.829Z,54.07
2018-02-01T19:45:59.329Z,54.37
2018-02-01T19:48:27.776Z,52.10
2018-02-01T19:50:56.267Z,59.37
2018-02-01T19:53:24.751Z,57.17
2018-02-01T19:55:53.208Z,57.00
2018-02-01T19:58:21.653Z,55.00
2018-02-01T20:00:50.158Z,49.13
2018-02-01T20:03:18.620Z,59.97
2018-02-01T20:05:47.106Z,61.67
2018-02-01T20:08:15.565Z,60.30
2018-02-01T20:10:44.037Z,56.87
2018-02-01T20:13:12.502Z,58.23
2018-02-01T20:15:40.969Z,52.60
2018-02-01T20:18:09.421Z,52.13
2018-02-01T20:20:37.899Z,54.60
2018-02-01T20:23:06.377Z,56.57
2018-02-01T20:25:34.883Z,54.40
2018-02-01T20:28:03.344Z,58.53
2018-02-01T20:30:31.785Z,55.47
2018-02-01T20:33:00.261Z,53.73
2018-02-01T20:35:28.737Z,56.70
2018-02-01T20:37:57.181Z,54.13
2018-02-01T20:40:25.657Z,51.20
2018-02-01T20:42:54.138Z,54.77
2018-02-01T20:45:22.603Z,63.00
2018-02-01T20:47:51.085Z,61.67
2018-02-01T20:50:19.530Z,66.27
2018-02-01T20:52:48.005Z,68.07
2018-02-01T20:55:16.513Z,64.20
2018-02-01T20:57:45.018Z,66.90
2018-02-01T21:00:13.489Z,67.17
2018-02-01T21:02:41.969Z,64.40
2018-02-01T21:05:10.463Z,71.07
2018-02-01T21:07:38.906Z,77.57
2018-02-01T21:10:07.389Z,83.50
2018-02-01T21:12:35.834Z,79.03
2018-02-01T21:15:04.352Z,73.60
2018-02-01T21:17:32.817Z,67.53
2018-02-01T21:20:01.299Z,69.87
2018-02-01T21:22:29.778Z,69.23
2018-02-01T21:24:58.232Z,67.23
2018-02-01T21:27:26.719Z,75.73
2018-02-01T21:29:55.175Z,66.03
2018-02-01T21:32:23.639Z,72.97
2018-02-01T21:34:52.107Z,74.37
2018-02-01T21:37:20.589Z,73.23
2018-02-01T21:39:49.058Z,79.63
2018-02-01T21:42:17.534Z,80.80
2018-02-01T21:44:46.009Z,76.03
2018-02-01T21:47:14.450Z,76.43
2018-02-01T21:49:42.934Z,76.50
2018-02-01T21:52:11.397Z,76.93
2018-02-01T21:54:39.889Z,71.30
2018-02-01T21:57:08.354Z,77.00
2018-02-01T21:59:36.827Z,72.13
2018-02-01T22:02:05.313Z,73.50
2018-02-01T22:04:33.921Z,73.07
2018-02-01T22:07:02.378Z,72.03
2018-02-01T22:09:30.841Z,67.57
2018-02-01T22:11:59.333Z,76.73
2018-02-01T22:14:27.806Z,74.67
2018-02-01T22:16:56.314Z,80.87
2018-02-01T22:19:24.792Z,94.77
2018-02-01T22:21:53.260Z,100.93
2018-02-01T22:24:21.756Z,94.90
2018-02-01T22:26:50.250Z,94.60
2018-02-01T22:29:18.715Z,87.00
2018-02-01T22:31:47.225Z,85.40
2018-02-01T22:34:15.668Z,87.17
2018-02-01T22:36:44.158Z,79.50
2018-02-01T22:39:12.645Z,80.70
2018-02-01T22:41:41.116Z,85.33
2018-02-01T22:44:09.617Z,89.63
2018-02-01T22:46:38.145Z,82.27
2018-02-01T22:49:06.602Z,78.50
2018-02-01T22:51:35.127Z,81.77
2018-02-01T22:54:03.634Z,73.40
2018-02-01T22:56:32.089Z,72.97
2018-02-01T22:59:01.524Z,75.80
2018-02-01T23:01:30.034Z,75.40
2018-02-01T23:03:58.569Z,68.57
2018-02-01T23:06:27.045Z,74.60
2018-02-01T23:08:55.538Z,65.47
2018-02-01T23:11:24.096Z,73.93
2018-02-01T23:13:52.612Z,93.90
2018-02-01T23:16:21.114Z,92.67
2018-02-01T23:18:49.589Z,93.43
2018-02-01T23:21:18.049Z,95.80
2018-02-01T23:23:46.553Z,95.60
2018-02-01T23:26:15.046Z,93.40
2018-02-01T23:28:43.541Z,98.13
2018-02-01T23:31:12.035Z,102.70
2018-02-01T23:33:40.565Z,98.83
2018-02-01T23:36:09.063Z,93.77
2018-02-01T23:38:37.518Z,95.63
2018-02-01T23:41:06.011Z,89.57
2018-02-01T23:43:34.502Z,86.27
2018-02-01T23:46:02.990Z,86.87
2018-02-01T23:48:31.474Z,87.77
2018-02-01T23:50:59.966Z,82.67
2018-02-01T23:53:28.510Z,79.83
2018-02-01T23:55:57.023Z,85.03
2018-02-01T23:58:25.506Z,81.40
